Terminal Aerodrome Forecast
Issued by NWS

Home | Current Version | Previous Version | Text Only | Print | Product List | Glossary On
Versions: 1 2 3 4 5 6 7 8 9 10 11 12 13 14 15 16 17 18 19 20 21
000
FTUS41 KPHI 011407 AAB
TAFPNE
TAF AMD
KPNE 011407Z 0114/0212 12006KT 4SM -RA BR SCT007 OVC015
      TEMPO 0114/0116 BKN007 OVC015
     FM011600 12008KT 2SM -RA BR OVC007
     FM020000 08008KT 2SM -DZ BR OVC006=

USA.gov is the U.S. government's official web portal to all federal, state and local government web resources and services.